Latest Weather Observations for Viewbank

IDV60801

Issued at 11:31 am EDT Thursday 18 December 2014 (issued every 30 minutes, with the page automatically refreshed every 10 minutes)

About weather observations | Map of weather stations | Latest weather observations for VIC | Other Formats
Station Details ID: 086068 Name: VIEWBANK Lat: -37.74 Lon: 145.10 Height: 66.1 m
Data from the previous 72 hours. | See also: Recent months at Viewbank
Date/Time
EDT
Temp
°C
App
Temp
°C
Dew
Point
Rel
Hum
%
Delta-T
°C
Wind Press
QNH
hPa
Press
MSL
hPa
Rain
since 9 am
mm
Dir
 
Spd
km/h
Gust
km/h
Spd
kts
Gust
kts
18/11:30am 23.8 17.6 4.2 28 9.7 WNW 26 43 14 23 1005.5 1005.3 0.0
18/11:00am 24.6 19.7 4.9 28 10.0 WNW 20 39 11 21 1005.2 1005.0 0.0
18/10:30am 23.5 19.4 4.5 29 9.4 WNW 15 30 8 16 1005.4 1005.2 0.0
18/10:00am 21.8 17.4 4.8 33 8.4 WNW 17 26 9 14 1005.7 1005.5 0.0
18/09:30am 21.6 18.2 5.9 36 7.9 WNW 13 22 7 12 1005.8 1005.6 0.0
18/09:00am 18.1 17.0 8.4 53 5.0 SSW 4 9 2 5 1005.9 1005.7 0.0
18/08:30am 15.7 14.1 8.9 64 3.5 SW 7 9 4 5 1006.0 1005.8 0.0
18/08:00am 14.1 13.1 8.7 70 2.7 NE 4 7 2 4 1005.7 1005.5 0.0
18/07:30am 11.7 9.9 8.0 78 1.8 ENE 7 7 4 4 1005.8 1005.6 0.0
18/07:00am 10.5 10.0 7.9 84 1.3 CALM 0 0 0 0 1005.9 1005.7 0.0
18/06:30am 10.0 9.4 7.6 85 1.2 CALM 0 6 0 3 1005.8 1005.6 0.0
18/06:00am 9.3 7.8 6.9 85 1.1 NNE 4 7 2 4 1005.8 1005.6 0.0
18/05:30am 9.5 8.1 7.1 85 1.1 NE 4 7 2 4 1005.6 1005.4 0.0
18/05:00am 9.0 7.0 7.0 87 0.9 NE 7 9 4 5 1005.5 1005.3 0.0
18/04:30am 10.1 8.6 6.8 80 1.6 N 4 7 2 4 1005.7 1005.5 0.0
18/04:00am 10.4 8.9 6.7 78 1.8 NNE 4 7 2 4 1005.4 1005.2 0.0
18/03:30am 10.9 9.1 7.0 77 1.9 NNE 6 9 3 5 1005.6 1005.4 0.0
18/03:00am 11.6 9.6 6.9 73 2.3 N 7 9 4 5 1005.7 1005.5 0.0
18/02:30am 12.1 10.2 6.8 70 2.5 NNE 6 9 3 5 1005.8 1005.6 0.0
18/02:00am 12.4 11.6 6.7 68 2.7 CALM 0 0 0 0 1005.9 1005.7 0.0
18/01:30am 12.3 11.2 6.8 69 2.6 SW 2 6 1 3 1006.2 1006.0 0.0
18/01:00am 12.7 11.9 6.7 67 2.9 CALM 0 0 0 0 1006.4 1006.2 0.0
18/12:30am 13.0 12.2 6.6 65 3.1 CALM 0 0 0 0 1006.6 1006.4 0.0
18/12:00am 13.3 11.8 6.6 64 3.2 SSW 4 6 2 3 1006.9 1006.7 0.0
 
Date/Time
EDT
Temp
°C
App
Temp
°C
Dew
Point
Rel
Hum
%
Delta-T
°C
Wind Press
QNH
hPa
Press
MSL
hPa
Rain
since 9 am
mm
Dir
 
Spd
km/h
Gust
km/h
Spd
kts
Gust
kts
17/11:30pm 13.7 11.8 6.6 62 3.4 SSW 6 9 3 5 1007.4 1007.2 0.0
17/11:00pm 14.1 12.2 6.7 61 3.6 S 6 9 3 5 1007.6 1007.4 0.0
17/10:30pm 14.7 12.6 6.8 59 3.9 S 7 13 4 7 1007.9 1007.8 0.0
17/10:00pm 15.0 12.5 6.6 57 4.1 SSE 9 19 5 10 1007.8 1007.6 0.0
17/09:30pm 15.8 12.9 6.5 54 4.5 SE 11 26 6 14 1008.0 1007.9 0.0
17/09:00pm 16.6 14.1 6.4 51 5.0 SE 9 22 5 12 1007.7 1007.5 0.0
17/08:30pm 17.7 14.4 6.3 47 5.6 SSE 13 26 7 14 1007.6 1007.4 0.0
17/08:00pm 18.8 15.8 6.0 43 6.3 SSE 11 19 6 10 1007.4 1007.2 0.0
17/07:30pm 19.9 16.9 5.9 40 7.0 SSE 11 20 6 11 1007.1 1006.9 0.0
17/07:00pm 20.5 17.0 5.3 37 7.5 SSE 13 22 7 12 1006.8 1006.6 0.0
17/06:30pm 21.7 18.0 4.3 32 8.5 S 13 19 7 10 1006.6 1006.4 0.0
17/06:00pm 22.1 18.4 4.2 31 8.8 SSW 13 20 7 11 1006.6 1006.4 0.0
17/05:30pm 22.0 18.3 4.6 32 8.6 S 13 22 7 12 1006.5 1006.3 0.0
17/05:00pm 21.8 17.9 3.5 30 8.8 S 13 22 7 12 1006.7 1006.5 0.0
17/04:30pm 21.9 18.8 3.6 30 8.8 SSE 9 15 5 8 1007.0 1006.8 0.0
17/04:00pm 21.2 17.7 3.4 31 8.5 ESE 11 19 6 10 1007.3 1007.1 0.0
17/03:30pm 21.2 18.4 3.0 30 8.6 ENE 7 15 4 8 1007.6 1007.4 0.0
17/03:00pm 21.2 17.3 3.4 31 8.5 SSE 13 19 7 10 1007.9 1007.8 0.0
17/02:30pm 20.6 17.8 2.9 31 8.3 NE 7 13 4 7 1008.2 1008.1 0.0
17/02:00pm 19.0 16.3 2.4 33 7.7 N 6 11 3 6 1008.6 1008.5 0.0
17/01:30pm 19.9 16.6 2.7 32 8.0 SSW 9 19 5 10 1008.8 1008.7 0.0
17/01:00pm 19.4 15.8 3.2 34 7.6 SSW 11 22 6 12 1009.2 1009.1 0.0
17/12:30pm 19.1 15.1 2.9 34 7.6 SSW 13 20 7 11 1009.4 1009.3 0.0
17/12:00pm 18.1 14.1 2.8 36 7.1 S 13 22 7 12 1009.4 1009.3 0.0
17/11:30am 19.3 15.5 3.9 36 7.3 SSW 13 26 7 14 1009.1 1009.0 0.0
17/11:00am 18.4 13.7 3.1 36 7.1 SSW 17 26 9 14 1009.3 1009.2 0.0
17/10:30am 17.2 12.3 4.2 42 6.1 SSW 19 30 10 16 1009.3 1009.2 0.0
17/10:00am 17.5 13.6 5.4 45 5.9 SSW 15 24 8 13 1009.3 1009.2 0.0
17/09:30am 15.2 11.2 5.1 51 4.8 SW 15 26 8 14 1009.3 1009.2 0.0
17/09:00am 15.6 11.7 5.5 51 4.8 WSW 15 26 8 14 1009.0 1008.9 0.0
17/08:30am 14.9 11.6 6.5 57 4.1 WSW 13 22 7 12 1008.8 1008.7 0.0
17/08:00am 14.1 10.9 6.9 62 3.5 WSW 13 19 7 10 1008.6 1008.5 0.0
17/07:30am 12.6 10.2 6.9 68 2.7 W 9 15 5 8 1008.3 1008.2 0.0
17/07:00am 11.4 9.6 7.1 75 2.1 W 6 11 3 6 1008.2 1008.1 0.0
17/06:30am 10.7 8.8 6.8 77 1.8 WNW 6 9 3 5 1007.8 1007.6 0.0
17/06:00am 10.5 8.6 6.5 76 1.9 NW 6 11 3 6 1007.3 1007.1 0.0
17/05:30am 10.7 8.5 6.3 74 2.1 W 7 9 4 5 1006.9 1006.7 0.0
17/05:00am 11.0 8.5 6.6 74 2.1 W 9 11 5 6 1006.7 1006.5 0.0
17/04:30am 11.2 9.1 6.5 73 2.2 W 7 11 4 6 1006.4 1006.2 0.0
17/04:00am 11.5 8.9 6.2 70 2.5 W 9 13 5 7 1006.3 1006.1 0.0
17/03:30am 11.7 9.1 6.2 69 2.6 W 9 15 5 8 1006.1 1005.9 0.0
17/03:00am 12.2 9.3 6.3 67 2.8 W 11 17 6 9 1006.2 1006.0 0.0
17/02:30am 12.4 9.0 6.0 65 3.0 W 13 20 7 11 1006.1 1005.9 0.0
17/02:00am 12.8 9.4 5.9 63 3.3 W 13 20 7 11 1005.9 1005.7 0.0
17/01:30am 13.0 9.6 5.9 62 3.4 W 13 20 7 11 1005.9 1005.7 0.0
17/01:00am 13.3 10.2 5.5 59 3.7 W 11 17 6 9 1005.8 1005.6 0.0
17/12:30am 13.8 9.1 5.2 56 4.0 WSW 19 28 10 15 1005.9 1005.7 0.0
17/12:00am 14.0 9.7 5.1 55 4.2 WSW 17 24 9 13 1005.9 1005.7 0.0
 
Date/Time
EDT
Temp
°C
App
Temp
°C
Dew
Point
Rel
Hum
%
Delta-T
°C
Wind Press
QNH
hPa
Press
MSL
hPa
Rain
since 9 am
mm
Dir
 
Spd
km/h
Gust
km/h
Spd
kts
Gust
kts
16/11:30pm 14.6 10.6 4.9 52 4.5 WSW 15 20 8 11 1005.9 1005.7 0.0
16/11:00pm 14.4 10.8 5.0 53 4.4 SW 13 24 7 13 1005.6 1005.4 0.0
16/10:30pm 15.1 11.4 4.5 49 4.9 SW 13 22 7 12 1005.5 1005.3 0.0
16/10:00pm 15.7 9.1 4.1 46 5.4 WSW 28 44 15 24 1004.9 1004.7 0.0
16/09:37pm 16.2 9.6 4.3 45 5.6 WSW 28 48 15 26 1004.4 1004.2 0.0
16/09:30pm 16.5 10.3 4.2 44 5.8 WSW 26 41 14 22 1004.3 1004.1 0.0
16/09:00pm 17.2 10.3 2.8 38 6.6 WSW 28 43 15 23 1003.3 1003.1 0.0
16/08:40pm 17.3 10.5 2.9 38 6.6 WSW 28 46 15 25 1002.8 1002.6 0.0
16/08:30pm 17.2 13.0 5.5 46 5.7 W 17 28 9 15 1002.8 1002.6 0.0
16/08:00pm 17.5 10.1 5.1 44 6.0 WSW 33 56 18 30 1001.9 1001.7 0.0
16/07:30pm 17.4 10.0 5.0 44 6.0 WSW 33 69 18 37 1001.3 1001.1 0.0
16/07:00pm 19.5 11.0 6.9 44 6.4 W 41 78 22 42 1000.1 999.9 0.0
16/06:30pm 19.9 11.6 9.5 51 5.5 WSW 43 78 23 42 998.7 998.5 0.0
16/06:00pm 21.1 13.4 8.7 45 6.6 WSW 39 76 21 41 997.0 996.8 0.0
16/05:53pm 21.5 13.8 10.0 48 6.2 W 41 76 22 41 996.8 996.6 0.0
16/05:35pm 21.7 15.9 11.4 52 5.7 WSW 33 54 18 29 996.9 996.7 0.0
16/05:30pm 21.5 15.8 11.2 52 5.7 WSW 32 48 17 26 996.7 996.5 0.0
16/05:26pm 21.8 16.0 10.9 50 6.0 WSW 32 48 17 26 996.7 996.5 0.0
16/05:02pm 22.4 16.3 9.9 45 6.8 WSW 32 57 17 31 995.2 995.1 0.0
16/05:00pm 22.6 16.4 9.4 43 7.2 WSW 32 54 17 29 995.6 995.5 0.0
16/04:58pm 24.3 18.1 7.9 35 8.7 W 30 54 16 29 995.1 995.0 0.0
16/04:36pm 29.6 21.9 -2.8 12 14.7 WNW 28 52 15 28 993.7 993.5 0.0
16/04:30pm 29.5 22.2 -2.9 12 14.7 WNW 26 48 14 26 993.5 993.3 0.0
16/04:00pm 30.7 21.8 -1.9 12 15.3 NW 35 57 19 31 993.0 992.8 0.0
16/03:35pm 30.9 23.3 -1.8 12 15.3 NW 28 57 15 31 992.3 992.1 0.0
16/03:30pm 31.7 25.4 -1.2 12 15.6 NW 22 43 12 23 992.3 992.1 0.0
16/03:00pm 31.7 23.5 -1.2 12 15.8 NW 32 56 17 30 991.7 991.5 0.0
16/02:38pm 31.1 23.6 -1.6 12 15.3 NW 28 46 15 25 991.9 991.7 0.0
16/02:30pm 31.9 23.5 -1.0 12 15.7 NW 33 59 18 32 992.0 991.8 0.0
16/02:25pm 31.8 23.2 -2.3 11 15.9 NW 33 59 18 32 992.3 992.1 0.0
16/02:18pm 31.6 23.7 -1.2 12 15.6 NW 30 48 16 26 992.1 991.9 0.0
16/02:00pm 31.9 24.1 -3.5 10 16.3 NNW 28 44 15 24 992.5 992.3 0.0
16/01:49pm 32.3 24.6 -3.2 10 16.4 NW 28 46 15 25 992.7 992.5 0.0
16/01:30pm 32.8 26.2 -0.3 12 16.1 NW 24 37 13 20 992.7 992.5 0.0
16/01:00pm 32.0 26.3 -0.9 12 15.9 NW 19 33 10 18 993.4 993.2 0.0
16/12:30pm 30.4 24.9 0.9 15 14.4 W 19 41 10 22 994.5 994.3 0.0
16/12:00pm 28.9 28.4 12.8 37 9.6 WSW 7 15 4 8 995.0 994.9 0.0
16/11:30am 26.4 26.0 15.1 49 6.8 SW 11 17 6 9 995.7 995.6 0.0
16/11:00am 24.4 24.2 14.8 55 5.8 SSW 9 17 5 9 995.7 995.6 0.0
16/10:30am 23.7 23.0 15.5 60 4.9 SSW 13 19 7 10 995.7 995.6 0.0
16/10:00am 22.2 20.7 15.3 65 4.1 SSW 17 24 9 13 995.8 995.7 0.0
16/09:30am 22.6 21.8 15.2 63 4.4 SSW 13 19 7 10 995.6 995.5 0.0
16/09:00am 21.7 23.2 15.8 69 3.6 SSE 2 7 1 4 995.7 995.6 0.0
16/08:30am 19.8 20.2 15.2 75 2.7 SW 7 11 4 6 996.2 996.1 -
16/08:00am 18.7 18.8 15.6 82 1.8 WSW 9 13 5 7 996.3 996.2 -
16/07:30am 16.8 18.9 16.2 96 0.4 CALM 0 0 0 0 995.6 995.5 -
16/07:00am 15.8 17.6 15.6 99 0.1 CALM 0 0 0 0 995.4 995.3 -
16/06:30am 15.5 17.2 15.3 99 0.1 CALM 0 6 0 3 995.2 995.1 -
16/06:00am 15.3 17.0 15.1 99 0.1 CALM 0 0 0 0 995.3 995.2 -
16/05:30am 15.7 17.5 15.5 99 0.1 CALM 0 6 0 3 995.4 995.3 -
16/05:00am 16.0 17.0 15.4 96 0.4 W 4 6 2 3 995.6 995.5 -
16/04:30am 16.3 16.3 15.3 94 0.6 W 9 11 5 6 996.1 996.0 -
16/04:00am 16.7 17.4 15.6 93 0.6 W 6 13 3 7 996.4 996.3 -
16/03:30am 16.8 17.3 15.5 92 0.8 WNW 7 13 4 7 997.1 996.9 -
16/03:00am 17.4 18.3 16.1 92 0.8 WNW 6 11 3 6 997.4 997.2 0.0
16/02:30am 17.4 18.4 16.3 93 0.7 NW 6 9 3 5 997.7 997.5 -
16/02:00am 17.3 19.4 16.3 94 0.6 CALM 0 6 0 3 998.0 997.8 -
16/01:30am 17.2 18.9 16.2 94 0.6 S 2 6 1 3 998.7 998.5 -
16/01:00am 17.2 18.9 16.1 93 0.7 S 2 7 1 4 999.5 999.3 -
16/12:30am 16.9 17.2 15.9 94 0.6 WSW 9 15 5 8 1000.1 999.9 -
16/12:00am 16.7 17.1 15.2 91 0.9 W 7 11 4 6 1000.7 1000.5 -
 
Date/Time
EDT
Temp
°C
App
Temp
°C
Dew
Point
Rel
Hum
%
Delta-T
°C
Wind Press
QNH
hPa
Press
MSL
hPa
Rain
since 9 am
mm
Dir
 
Spd
km/h
Gust
km/h
Spd
kts
Gust
kts
15/11:30pm 16.8 18.5 15.2 90 0.9 CALM 0 6 0 3 1001.0 1000.8 -
15/11:00pm 16.9 17.2 15.1 89 1.1 SW 7 11 4 6 1001.3 1001.1 -
15/10:30pm 17.0 17.2 14.8 87 1.3 SSW 7 9 4 5 1001.8 1001.6 -
15/10:00pm 17.5 17.3 14.6 83 1.7 SW 9 13 5 7 1002.3 1002.1 -
15/09:30pm 17.6 17.3 14.3 81 1.9 SW 9 15 5 8 1002.4 1002.2 -
15/09:00pm 18.2 17.9 14.3 78 2.3 SW 9 15 5 8 1002.4 1002.2 0.0
15/08:30pm 18.9 18.0 14.8 77 2.4 SSW 13 19 7 10 1002.7 1002.5 -
15/08:00pm 19.7 18.7 14.5 72 3.0 SSW 13 20 7 11 1003.0 1002.8 -
15/07:30pm 21.0 19.6 14.6 67 3.8 S 15 26 8 14 1003.2 1003.0 -
15/07:00pm 21.7 20.3 14.6 64 4.2 S 15 28 8 15 1003.2 1003.0 -
15/06:30pm 22.5 20.4 14.6 61 4.7 S 19 28 10 15 1003.1 1002.9 -
15/06:00pm 23.0 22.4 14.6 59 5.0 SSE 11 22 6 12 1003.1 1002.9 -
15/05:30pm 24.4 23.5 14.8 55 5.7 SSE 13 24 7 13 1003.2 1003.0 -
15/05:00pm 25.3 25.1 15.6 55 5.9 SSE 11 20 6 11 1003.7 1003.5 -
15/04:30pm 25.1 23.7 14.6 52 6.3 S 15 30 8 16 1003.9 1003.7 -
15/04:00pm 24.6 22.9 14.7 54 5.9 SW 17 26 9 14 1004.2 1004.0 -
15/03:30pm 24.1 22.4 14.8 56 5.6 SW 17 24 9 13 1004.7 1004.5 -
15/03:00pm 24.5 - 14.6 54 5.9 - - - - - 1005.2 1005.0 -
15/02:33pm 24.2 19.2 14.0 53 6.0 SW 33 70 18 38 1005.5 - 0.0
15/02:30pm 24.5 25.9 14.3 53 6.1 CALM 0 17 0 9 1005.5 - 0.0
15/02:21pm 25.0 21.0 14.2 51 6.4 SSE 28 87 15 47 1005.7 - 0.0
15/02:00pm 24.9 23.0 14.1 51 6.4 SW 17 28 9 15 1006.2 - 0.0
15/01:30pm 24.7 23.0 14.8 54 5.9 SW 17 24 9 13 1006.6 1006.4 0.0
15/01:00pm 23.9 21.9 14.0 54 5.8 SW 17 24 9 13 1007.2 1007.0 0.0
15/12:30pm 23.9 22.2 13.7 53 6.0 WSW 15 22 8 12 1007.5 1007.3 0.0
15/12:00pm 23.5 22.3 12.8 51 6.2 SSW 11 19 6 10 1008.0 1007.9 0.0

Other Formats:

Comma delimited format used in spreadsheet applications
http://www.bom.gov.au/fwo/IDV60801/IDV60801.95874.axf

JavaScript Object Notation format (JSON) in row-major order
http://www.bom.gov.au/fwo/IDV60801/IDV60801.95874.json